Time;durP1;ratioP1;P1;durP2;ratioP2;P2;SDS_P1;SDS_P2;PMS_P1;PMS_P2;Temp;Humidity;BMP_temperature;BMP_pressure;BME280_temperature;BME280_humidity;BME280_pressure;Samples;Min_cycle;Max_cycle;Signal;HPM_P1;HPM_P2
2023/03/17 17:27:09;;;;;;;11.40;9.07;;;14.60;25.40;;;;;;5096786;27;20631;-50
2023/03/17 17:29:35;;;;;;;14.00;8.93;;;14.80;25.30;;;;;;5109370;28;20187;-50
2023/03/17 17:32:00;;;;;;;10.47;9.37;;;15.00;25.00;;;;;;5101976;27;20212;-50
2023/03/17 17:34:26;;;;;;;15.18;11.02;;;15.20;24.60;;;;;;5059039;28;20423;-52
2023/03/17 17:36:52;;;;;;;14.93;9.23;;;15.70;24.20;;;;;;5065197;28;20262;-51
2023/03/17 17:39:18;;;;;;;17.20;9.77;;;15.50;23.80;;;;;;5068031;28;20654;-51
2023/03/17 17:41:44;;;;;;;12.10;9.50;;;15.50;23.90;;;;;;5068338;28;20181;-52
2023/03/17 17:44:10;;;;;;;14.63;9.00;;;15.50;23.50;;;;;;5068313;28;20173;-51
2023/03/17 17:46:36;;;;;;;13.60;9.00;;;15.50;23.60;;;;;;5067109;28;20218;-52
2023/03/17 17:49:02;;;;;;;15.18;8.60;;;15.40;23.50;;;;;;5067277;28;20180;-51
2023/03/17 17:51:28;;;;;;;12.03;8.47;;;15.40;23.50;;;;;;5067504;28;20323;-51
2023/03/17 17:53:54;;;;;;;13.50;9.40;;;15.40;23.60;;;;;;5065529;28;20394;-51
2023/03/17 17:56:20;;;;;;;11.43;8.10;;;15.30;23.60;;;;;;5065385;28;20203;-51
2023/03/17 17:58:46;;;;;;;12.60;9.00;;;15.30;23.70;;;;;;5065577;28;20549;-51
2023/03/17 18:01:12;;;;;;;14.53;7.43;;;15.40;23.70;;;;;;5065529;28;20915;-51
2023/03/17 18:03:41;;;;;;;15.38;8.48;;;15.30;23.50;;;;;;5065523;28;20549;-51
2023/03/17 18:06:07;;;;;;;16.13;9.23;;;15.30;23.60;;;;;;5065206;28;20246;-51
2023/03/17 18:08:33;;;;;;;11.00;7.50;;;15.30;23.70;;;;;;5065543;28;20257;-51
2023/03/17 18:10:59;;;;;;;11.07;7.95;;;15.30;23.80;;;;;;5067101;28;20408;-51
2023/03/17 18:13:25;;;;;;;18.37;8.33;;;15.20;23.60;;;;;;5066936;28;20646;-51
2023/03/17 18:15:51;;;;;;;12.67;7.50;;;15.20;23.70;;;;;;5067069;28;20269;-51
2023/03/17 18:18:17;;;;;;;9.80;7.25;;;15.20;23.80;;;;;;5066655;28;20193;-51
2023/03/17 18:20:42;;;;;;;9.63;7.10;;;15.20;23.80;;;;;;5066780;28;20541;-51
2023/03/17 18:23:08;;;;;;;11.10;8.20;;;15.10;23.90;;;;;;5066448;28;20403;-51
2023/03/17 18:25:34;;;;;;;17.90;8.37;;;15.10;24.10;;;;;;5066500;28;20641;-51
2023/03/17 18:28:03;;;;;;;8.50;6.82;;;15.00;24.10;;;;;;5066588;28;20195;-51
2023/03/17 18:30:30;;;;;;;14.73;7.65;;;15.10;24.00;;;;;;5066376;28;20532;-51
2023/03/17 18:33:03;;;;;;;10.20;7.18;;;15.00;24.00;;;;;;5066626;28;20161;-51
2023/03/17 18:35:29;;;;;;;8.40;6.75;;;14.90;24.10;;;;;;5066337;28;20223;-51
2023/03/17 18:37:56;;;;;;;10.23;7.53;;;14.90;24.00;;;;;;5056310;28;20587;-51
2023/03/17 18:40:22;;;;;;;10.40;7.20;;;14.90;24.10;;;;;;5053248;28;20404;-51
2023/03/17 18:42:48;;;;;;;9.73;7.25;;;14.90;24.20;;;;;;5053181;28;20541;-51
2023/03/17 18:45:15;;;;;;;9.33;8.13;;;14.80;24.10;;;;;;5053325;28;20194;-51
2023/03/17 18:47:40;;;;;;;11.65;7.60;;;14.80;24.00;;;;;;5053046;28;20428;-51
2023/03/17 18:50:08;;;;;;;14.03;9.07;;;14.80;24.10;;;;;;5052965;28;20203;-51
2023/03/17 18:52:36;;;;;;;8.73;6.60;;;14.80;24.10;;;;;;5052997;28;20458;-51
2023/03/17 18:55:03;;;;;;;10.23;7.70;;;14.80;24.10;;;;;;5053104;28;20257;-51
2023/03/17 18:57:28;;;;;;;9.90;7.38;;;14.70;23.90;;;;;;5052608;28;20746;-51
2023/03/17 18:59:54;;;;;;;10.20;7.63;;;14.70;24.00;;;;;;5053151;28;20272;-51
2023/03/17 19:02:20;;;;;;;7.90;6.20;;;14.60;23.70;;;;;;5052733;28;20173;-51
2023/03/17 19:04:46;;;;;;;8.75;7.05;;;14.60;24.20;;;;;;5052665;28;20763;-51
2023/03/17 19:07:16;;;;;;;9.43;6.60;;;14.60;24.00;;;;;;5052545;28;20197;-50
2023/03/17 19:09:43;;;;;;;13.27;7.70;;;14.60;24.00;;;;;;5052623;28;20172;-51
2023/03/17 19:12:09;;;;;;;8.50;6.20;;;14.60;23.70;;;;;;5052600;28;20185;-51
2023/03/17 19:14:36;;;;;;;11.90;8.07;;;14.50;23.70;;;;;;5052774;28;20169;-51
2023/03/17 19:17:03;;;;;;;10.05;6.75;;;14.50;23.70;;;;;;5052329;28;20467;-50
2023/03/17 19:19:28;;;;;;;11.55;7.47;;;14.50;23.90;;;;;;5052754;28;20256;-51
2023/03/17 19:21:54;;;;;;;14.10;9.23;;;14.50;23.70;;;;;;5052463;28;20257;-51
2023/03/17 19:24:20;;;;;;;13.33;8.33;;;14.40;23.50;;;;;;5051386;28;20411;-51
2023/03/17 19:26:46;;;;;;;9.43;7.18;;;14.40;23.70;;;;;;5052385;28;20213;-51
2023/03/17 19:29:13;;;;;;;13.33;7.10;;;14.40;23.50;;;;;;5052436;28;20200;-51
2023/03/17 19:31:40;;;;;;;12.40;7.20;;;14.30;23.50;;;;;;5052705;28;20178;-51
2023/03/17 19:34:11;;;;;;;9.60;6.80;;;14.30;24.30;;;;;;5052632;28;20182;-50
2023/03/17 19:36:39;;;;;;;9.15;6.63;;;14.30;23.50;;;;;;5052310;28;20198;-50
2023/03/17 19:39:06;;;;;;;10.20;6.05;;;14.30;23.70;;;;;;5052400;28;20177;-50
2023/03/17 19:41:32;;;;;;;10.98;6.53;;;14.30;23.50;;;;;;5051970;28;20174;-51
2023/03/17 19:43:59;;;;;;;8.65;6.68;;;14.30;23.30;;;;;;5052054;28;20645;-51
2023/03/17 19:46:26;;;;;;;8.38;6.65;;;14.20;23.20;;;;;;5051619;28;20209;-51
2023/03/17 19:48:55;;;;;;;7.60;5.80;;;14.20;23.00;;;;;;5050731;28;20181;-50
2023/03/17 19:51:24;;;;;;;12.52;6.45;;;14.20;23.40;;;;;;5051973;28;20181;-51
2023/03/17 19:53:50;;;;;;;7.18;5.75;;;14.10;23.40;;;;;;5051812;28;20227;-51
2023/03/17 19:56:16;;;;;;;9.13;6.40;;;14.10;23.30;;;;;;5051518;28;20170;-51
2023/03/17 19:58:42;;;;;;;10.98;6.18;;;14.00;23.30;;;;;;5051944;28;20211;-51
2023/03/17 20:01:08;;;;;;;8.53;6.47;;;14.00;23.30;;;;;;5051961;28;20208;-51
2023/03/17 20:03:37;;;;;;;10.80;6.33;;;14.00;23.00;;;;;;5051877;28;20522;-49
2023/03/17 20:06:05;;;;;;;9.93;6.20;;;14.10;23.30;;;;;;5051864;28;20240;-49
2023/03/17 20:08:32;;;;;;;7.50;6.18;;;14.10;23.10;;;;;;5051328;28;20230;-49
2023/03/17 20:10:58;;;;;;;10.15;5.63;;;14.10;23.20;;;;;;5051785;28;20181;-49
2023/03/17 20:13:23;;;;;;;8.43;5.40;;;14.00;23.00;;;;;;5051328;28;20181;-50
2023/03/17 20:15:50;;;;;;;6.47;4.67;;;14.00;22.80;;;;;;5051451;28;20652;-49
2023/03/17 20:18:17;;;;;;;8.23;5.07;;;14.00;23.00;;;;;;5051485;28;20201;-50
2023/03/17 20:20:48;;;;;;;13.23;6.18;;;13.90;22.80;;;;;;5051579;28;20185;-49
2023/03/17 20:23:15;;;;;;;9.05;5.32;;;13.90;23.00;;;;;;5051700;28;20162;-50
2023/03/17 20:25:41;;;;;;;6.95;5.50;;;13.90;23.00;;;;;;5051198;28;20221;-49
2023/03/17 20:28:09;;;;;;;12.93;5.60;;;13.90;22.90;;;;;;5050849;28;20213;-50
2023/03/17 20:30:36;;;;;;;6.00;5.32;;;13.90;22.80;;;;;;5051256;28;20184;-50
2023/03/17 20:33:03;;;;;;;7.50;5.30;;;13.80;22.50;;;;;;5051500;28;20195;-49
2023/03/17 20:35:29;;;;;;;11.15;5.93;;;13.80;22.50;;;;;;5050891;28;20181;-50
2023/03/17 20:37:56;;;;;;;6.88;5.00;;;13.80;22.50;;;;;;5050803;28;20197;-50
2023/03/17 20:40:24;;;;;;;8.20;5.30;;;13.80;22.50;;;;;;5050669;28;20169;-49
2023/03/17 20:42:50;;;;;;;11.13;6.57;;;13.70;22.40;;;;;;5050743;28;20340;-49
2023/03/17 20:45:16;;;;;;;9.10;5.32;;;13.70;22.30;;;;;;5050548;28;20231;-49
2023/03/17 20:47:42;;;;;;;10.30;5.50;;;13.70;22.50;;;;;;5050698;28;20193;-50
2023/03/17 20:50:09;;;;;;;8.32;5.43;;;13.70;22.20;;;;;;5050973;28;20403;-49
2023/03/17 20:52:39;;;;;;;12.13;6.15;;;13.70;22.20;;;;;;5050642;28;20260;-49
2023/03/17 20:55:08;;;;;;;8.02;5.53;;;13.60;22.20;;;;;;5050622;28;20222;-49
2023/03/17 20:57:35;;;;;;;9.00;4.90;;;13.70;22.50;;;;;;5050603;28;20249;-49
2023/03/17 21:00:02;;;;;;;5.90;5.30;;;13.70;22.20;;;;;;5050531;28;20260;-49
2023/03/17 21:02:28;;;;;;;6.97;5.45;;;13.60;22.00;;;;;;5050760;28;20327;-49
2023/03/17 21:04:54;;;;;;;10.00;5.30;;;13.60;22.30;;;;;;5050647;28;20168;-50
2023/03/17 21:07:21;;;;;;;10.25;5.80;;;13.60;22.30;;;;;;5050470;28;20561;-49
2023/03/17 21:09:47;;;;;;;8.93;4.85;;;13.60;22.10;;;;;;5050221;28;20169;-49
2023/03/17 21:12:15;;;;;;;8.05;4.82;;;13.60;21.90;;;;;;5050465;28;20185;-50
2023/03/17 21:14:41;;;;;;;9.07;5.20;;;13.60;22.10;;;;;;5050268;28;20641;-49
2023/03/17 21:17:08;;;;;;;12.20;5.72;;;13.50;22.00;;;;;;5050013;28;20694;-49
2023/03/17 21:19:35;;;;;;;9.27;5.65;;;13.50;22.00;;;;;;5050242;28;20173;-49
2023/03/17 21:22:02;;;;;;;7.43;5.63;;;13.50;21.50;;;;;;5050123;28;20185;-49
2023/03/17 21:24:34;;;;;;;5.20;4.68;;;13.50;21.70;;;;;;5049816;28;20212;-49
2023/03/17 21:27:03;;;;;;;6.32;4.78;;;13.60;22.00;;;;;;5049722;28;20213;-50
2023/03/17 21:29:31;;;;;;;7.90;5.60;;;13.60;21.80;;;;;;5050498;28;20192;-49
2023/03/17 21:31:59;;;;;;;6.07;4.88;;;13.60;22.00;;;;;;5050193;28;20181;-49
2023/03/17 21:34:25;;;;;;;9.70;5.25;;;13.60;21.80;;;;;;5050437;28;20181;-49
2023/03/17 21:36:51;;;;;;;9.10;5.72;;;13.60;21.30;;;;;;5050224;28;20288;-49
2023/03/17 21:39:18;;;;;;;6.97;4.88;;;13.60;21.60;;;;;;5050322;28;20545;-49
2023/03/17 21:41:45;;;;;;;8.40;5.43;;;13.60;21.60;;;;;;5050128;28;20177;-50
2023/03/17 21:44:14;;;;;;;8.38;4.85;;;13.50;21.40;;;;;;5050264;28;20537;-49
2023/03/17 21:46:41;;;;;;;6.25;4.93;;;13.50;21.40;;;;;;5049843;28;20212;-49
2023/03/17 21:49:06;;;;;;;7.88;5.55;;;13.60;21.20;;;;;;5050055;28;20197;-49
2023/03/17 21:51:33;;;;;;;9.33;5.20;;;13.60;21.20;;;;;;5049931;28;20265;-49
2023/03/17 21:53:59;;;;;;;7.15;4.45;;;13.60;21.10;;;;;;5050049;28;20469;-49
2023/03/17 21:56:26;;;;;;;7.68;5.45;;;13.60;21.10;;;;;;5049652;28;20204;-49
2023/03/17 21:58:52;;;;;;;5.65;4.75;;;13.60;21.20;;;;;;5050099;28;20264;-49
2023/03/17 22:01:20;;;;;;;10.43;4.65;;;13.50;21.10;;;;;;5049853;28;20181;-49
2023/03/17 22:03:46;;;;;;;6.75;4.80;;;13.50;21.10;;;;;;5049696;28;20522;-49
2023/03/17 22:06:13;;;;;;;7.35;4.88;;;13.50;20.70;;;;;;5049468;28;20653;-49
2023/03/17 22:08:39;;;;;;;7.97;5.07;;;13.50;20.90;;;;;;5050055;28;20178;-50
2023/03/17 22:11:10;;;;;;;6.40;4.50;;;13.40;21.20;;;;;;5050033;28;20228;-50
2023/03/17 22:13:35;;;;;;;6.10;4.20;;;13.40;20.90;;;;;;5053002;28;20161;-49
2023/03/17 22:16:02;;;;;;;8.37;4.93;;;13.40;20.90;;;;;;5053571;28;20196;-50
2023/03/17 22:18:28;;;;;;;9.73;4.70;;;13.50;21.00;;;;;;5053537;28;20177;-50
2023/03/17 22:20:55;;;;;;;9.93;5.57;;;13.50;21.50;;;;;;5053526;28;20177;-49
2023/03/17 22:23:21;;;;;;;7.25;5.00;;;13.40;21.10;;;;;;5053478;28;20689;-50
2023/03/17 22:25:47;;;;;;;8.17;5.33;;;13.50;21.00;;;;;;5053361;28;20267;-50
2023/03/17 22:28:12;;;;;;;7.70;4.93;;;13.40;20.90;;;;;;5053526;28;20232;-49
2023/03/17 22:30:38;;;;;;;7.80;4.73;;;13.40;21.10;;;;;;5053278;28;20537;-49
2023/03/17 22:33:05;;;;;;;7.23;4.70;;;13.40;20.90;;;;;;5053100;28;20177;-49
2023/03/17 22:35:32;;;;;;;6.45;4.80;;;13.30;20.70;;;;;;5052961;28;20190;-49
2023/03/17 22:37:58;;;;;;;7.82;5.13;;;13.30;20.50;;;;;;5052829;28;20205;-49
2023/03/17 22:40:24;;;;;;;7.00;5.05;;;13.20;20.70;;;;;;5052965;28;20169;-49
2023/03/17 22:42:50;;;;;;;5.77;4.30;;;13.30;20.70;;;;;;5053255;28;20264;-49
2023/03/17 22:45:16;;;;;;;8.37;5.37;;;13.20;20.90;;;;;;5052844;28;20435;-49
2023/03/17 22:47:42;;;;;;;7.63;4.60;;;13.20;20.90;;;;;;5052801;28;20423;-49
2023/03/17 22:50:08;;;;;;;7.90;4.57;;;13.20;20.80;;;;;;5052846;28;20418;-50
2023/03/17 22:52:35;;;;;;;7.57;5.00;;;13.20;20.70;;;;;;5052815;28;20415;-49
2023/03/17 22:55:01;;;;;;;6.80;4.25;;;13.20;20.70;;;;;;5053077;28;20185;-50
2023/03/17 22:57:27;;;;;;;10.60;5.90;;;13.30;21.00;;;;;;5052696;28;20247;-49
2023/03/17 22:59:54;;;;;;;7.73;4.17;;;13.30;21.20;;;;;;5052831;28;20260;-49
2023/03/17 23:02:19;;;;;;;7.15;5.60;;;13.20;21.20;;;;;;5052725;28;20173;-49
2023/03/17 23:04:45;;;;;;;6.68;4.22;;;13.20;21.00;;;;;;5052689;28;20820;-49
2023/03/17 23:07:11;;;;;;;7.43;5.30;;;13.20;21.00;;;;;;5052695;28;20216;-49
2023/03/17 23:09:39;;;;;;;7.20;4.37;;;13.20;21.00;;;;;;5052498;28;20180;-49
2023/03/17 23:12:06;;;;;;;12.38;6.60;;;13.20;20.80;;;;;;5052907;28;20412;-49
2023/03/17 23:14:31;;;;;;;11.90;4.47;;;13.10;20.80;;;;;;5052444;28;20698;-49
2023/03/17 23:16:57;;;;;;;8.13;4.63;;;13.10;21.00;;;;;;5052187;28;20197;-49
2023/03/17 23:19:23;;;;;;;7.10;4.90;;;13.10;20.90;;;;;;5052645;28;20200;-49
2023/03/17 23:21:48;;;;;;;7.07;5.40;;;13.10;21.20;;;;;;5052276;28;20177;-49
2023/03/17 23:24:14;;;;;;;7.90;4.30;;;13.10;21.10;;;;;;5052296;28;20189;-49
2023/03/17 23:26:40;;;;;;;9.17;4.77;;;13.00;20.70;;;;;;5051939;28;20243;-49
2023/03/17 23:29:08;;;;;;;7.40;5.33;;;13.00;21.20;;;;;;5052119;28;20180;-49
2023/03/17 23:31:35;;;;;;;9.02;5.80;;;13.00;21.00;;;;;;5052309;28;20256;-49
2023/03/17 23:34:02;;;;;;;5.75;4.40;;;12.90;21.00;;;;;;5052303;28;20177;-49
2023/03/17 23:36:28;;;;;;;10.63;5.85;;;12.90;21.00;;;;;;5067281;28;20193;-49
2023/03/17 23:38:54;;;;;;;6.50;5.45;;;12.90;21.10;;;;;;5052004;28;20664;-49
2023/03/17 23:41:20;;;;;;;7.57;4.30;;;12.80;21.50;;;;;;5051963;28;20268;-49
2023/03/17 23:43:46;;;;;;;9.50;4.38;;;12.70;21.00;;;;;;5051873;28;20217;-49
2023/03/17 23:46:12;;;;;;;8.70;4.40;;;12.70;21.10;;;;;;5052099;28;20236;-51
2023/03/17 23:48:38;;;;;;;6.90;5.20;;;12.70;21.00;;;;;;5051946;28;20174;-52
2023/03/17 23:51:05;;;;;;;7.28;5.10;;;12.70;20.80;;;;;;5052018;28;20173;-49
2023/03/17 23:53:31;;;;;;;8.00;5.88;;;12.70;21.10;;;;;;5051672;28;20560;-49
2023/03/17 23:55:58;;;;;;;9.55;5.03;;;12.60;20.90;;;;;;5051898;28;20212;-50
2023/03/17 23:58:25;;;;;;;9.50;5.38;;;12.50;20.80;;;;;;5051412;28;20701;-49
